createdAt,value
2022-07-29T00:04:42.931Z,2.90
2022-07-29T00:09:51.984Z,2.90
2022-07-29T00:14:58.234Z,2.75
2022-07-29T00:20:01.501Z,2.72
2022-07-29T00:25:05.177Z,2.35
2022-07-29T00:30:10.764Z,2.95
2022-07-29T00:35:31.482Z,5.75
2022-07-29T00:40:36.985Z,4.10
2022-07-29T00:45:45.067Z,3.10
2022-07-29T00:50:48.552Z,3.30
2022-07-29T00:55:52.492Z,3.30
2022-07-29T01:00:57.504Z,3.40
2022-07-29T01:06:01.713Z,3.30
2022-07-29T01:11:05.638Z,3.10
2022-07-29T01:16:17.114Z,3.40
2022-07-29T01:21:52.482Z,3.20
2022-07-29T01:27:05.964Z,2.97
2022-07-29T01:32:22.574Z,3.10
2022-07-29T01:37:37.274Z,2.80
2022-07-29T01:42:45.064Z,3.15
2022-07-29T01:47:58.874Z,2.97
2022-07-29T01:53:05.757Z,3.10
2022-07-29T01:58:10.435Z,2.80
2022-07-29T02:03:17.822Z,3.00
2022-07-29T02:08:22.970Z,3.28
2022-07-29T02:13:28.168Z,3.13
2022-07-29T02:18:33.991Z,3.03
2022-07-29T02:23:50.439Z,2.92
2022-07-29T02:28:58.410Z,3.15
2022-07-29T02:34:05.509Z,3.10
2022-07-29T02:39:10.800Z,3.30
2022-07-29T02:44:17.435Z,3.53
2022-07-29T02:49:32.982Z,3.42
2022-07-29T02:54:48.026Z,3.58
2022-07-29T02:59:54.960Z,3.47
2022-07-29T03:05:00.280Z,3.33
2022-07-29T03:10:06.445Z,3.70
2022-07-29T03:15:16.829Z,3.60
2022-07-29T03:20:21.633Z,3.40
2022-07-29T03:25:24.990Z,3.30
2022-07-29T03:30:28.961Z,3.30
2022-07-29T03:35:33.669Z,3.40
2022-07-29T03:40:42.960Z,3.50
2022-07-29T03:45:51.966Z,4.28
2022-07-29T03:50:56.633Z,4.20
2022-07-29T03:56:04.062Z,3.60
2022-07-29T04:01:07.642Z,3.45
2022-07-29T04:06:12.259Z,3.70
2022-07-29T04:11:15.588Z,3.80
2022-07-29T04:16:18.910Z,3.95
2022-07-29T04:21:23.896Z,3.88
2022-07-29T04:26:27.159Z,3.53
2022-07-29T04:31:30.572Z,3.73
2022-07-29T04:36:35.421Z,3.90
2022-07-29T04:41:38.666Z,3.65
2022-07-29T04:46:41.957Z,3.80
2022-07-29T04:51:46.635Z,3.60
2022-07-29T04:56:49.842Z,3.87
2022-07-29T05:01:53.193Z,3.70
2022-07-29T05:06:57.866Z,5.40
2022-07-29T05:12:01.126Z,3.63
2022-07-29T05:17:04.513Z,3.38
2022-07-29T05:22:09.244Z,3.33
2022-07-29T05:27:12.533Z,3.33
2022-07-29T05:32:16.118Z,3.37
2022-07-29T05:37:21.057Z,3.10
2022-07-29T05:42:24.401Z,3.20
2022-07-29T05:47:27.727Z,2.70
2022-07-29T05:52:32.412Z,3.10
2022-07-29T05:57:35.688Z,2.73
2022-07-29T06:02:39.014Z,3.30
2022-07-29T06:07:50.645Z,2.42
2022-07-29T06:12:54.583Z,2.60
2022-07-29T06:17:59.132Z,2.50
2022-07-29T06:23:05.587Z,2.80
2022-07-29T06:28:09.037Z,2.40
2022-07-29T06:33:17.946Z,2.60
2022-07-29T06:38:30.653Z,2.60
2022-07-29T06:43:50.272Z,2.47
2022-07-29T06:48:56.407Z,2.40
2022-07-29T06:54:03.237Z,2.33
2022-07-29T06:59:07.463Z,2.40
2022-07-29T07:04:11.643Z,2.50
2022-07-29T07:09:16.355Z,2.58
2022-07-29T07:14:20.204Z,2.78
2022-07-29T07:19:24.060Z,2.77
2022-07-29T07:24:28.828Z,2.38
2022-07-29T07:29:32.119Z,2.60
2022-07-29T07:34:35.690Z,2.70
2022-07-29T07:39:40.383Z,2.80
2022-07-29T07:45:10.993Z,2.33
2022-07-29T07:50:08.474Z,2.47
2022-07-29T07:55:13.121Z,2.40
2022-07-29T08:00:17.517Z,2.40
2022-07-29T08:05:22.429Z,2.07
2022-07-29T08:10:44.756Z,2.05
2022-07-29T08:15:48.422Z,2.10
2022-07-29T08:20:51.684Z,2.00
2022-07-29T08:25:56.289Z,2.60
2022-07-29T08:30:59.565Z,2.40
2022-07-29T08:36:03.411Z,2.33
2022-07-29T08:41:08.414Z,2.20
2022-07-29T08:46:11.742Z,2.25
2022-07-29T08:51:16.929Z,2.10
2022-07-29T08:56:22.585Z,2.27
2022-07-29T09:01:35.770Z,2.10
2022-07-29T09:06:44.076Z,2.20
2022-07-29T09:11:48.872Z,2.13
2022-07-29T09:16:57.286Z,2.28
2022-07-29T09:22:03.739Z,1.90
2022-07-29T09:27:13.763Z,2.20
2022-07-29T09:32:17.030Z,1.75
2022-07-29T09:37:29.009Z,2.40
2022-07-29T09:42:34.907Z,2.00
2022-07-29T09:47:45.992Z,2.10
2022-07-29T09:52:51.301Z,1.83
2022-07-29T09:57:56.028Z,1.70
2022-07-29T10:03:03.558Z,2.05
2022-07-29T10:08:08.667Z,1.98
2022-07-29T10:13:15.955Z,2.00
2022-07-29T10:18:21.041Z,2.00
2022-07-29T10:23:24.963Z,1.60
2022-07-29T10:28:29.642Z,1.60
2022-07-29T10:33:47.549Z,1.60
2022-07-29T10:38:57.717Z,1.63
2022-07-29T10:44:05.983Z,1.92
2022-07-29T10:49:11.912Z,2.20
2022-07-29T10:54:18.813Z,1.55
2022-07-29T10:59:36.318Z,1.80
2022-07-29T11:05:02.591Z,2.25
2022-07-29T11:10:26.999Z,1.83
2022-07-29T11:15:55.344Z,2.05
2022-07-29T11:21:00.800Z,1.70
2022-07-29T11:26:23.189Z,1.60
2022-07-29T11:31:39.727Z,1.80
2022-07-29T11:37:27.707Z,2.00
2022-07-29T11:42:44.379Z,1.88
2022-07-29T11:47:56.336Z,1.83
2022-07-29T11:53:03.324Z,1.90
2022-07-29T11:58:14.936Z,1.80
2022-07-29T12:03:33.300Z,1.60
2022-07-29T12:08:44.899Z,1.60
2022-07-29T12:13:50.211Z,1.40
2022-07-29T12:19:06.524Z,1.30
2022-07-29T12:24:10.579Z,1.60
2022-07-29T12:29:20.483Z,1.60
2022-07-29T12:34:41.625Z,1.37
2022-07-29T12:39:46.771Z,1.45
2022-07-29T12:44:53.402Z,1.40
2022-07-29T12:50:13.183Z,1.30
2022-07-29T12:55:18.068Z,1.00
2022-07-29T13:00:26.756Z,1.10
2022-07-29T13:05:49.180Z,1.10
2022-07-29T13:10:53.113Z,1.10
2022-07-29T13:16:09.013Z,1.37
2022-07-29T13:21:18.899Z,1.07
2022-07-29T13:26:22.621Z,0.90
2022-07-29T13:31:26.506Z,1.08
2022-07-29T13:36:31.851Z,0.80
2022-07-29T13:41:35.867Z,0.90
2022-07-29T13:46:40.614Z,0.90
2022-07-29T13:51:45.683Z,0.90
2022-07-29T13:56:49.268Z,1.10
2022-07-29T14:01:53.027Z,0.80
2022-07-29T14:06:58.366Z,0.90
2022-07-29T14:12:07.774Z,1.00
2022-07-29T14:17:11.721Z,0.90
2022-07-29T14:22:16.419Z,1.02
2022-07-29T14:27:19.755Z,1.10
2022-07-29T14:32:41.410Z,1.00
2022-07-29T14:37:46.051Z,1.00
2022-07-29T14:42:50.505Z,1.20
2022-07-29T14:47:57.477Z,1.30
2022-07-29T14:53:03.268Z,1.30
2022-07-29T14:58:12.063Z,1.50
2022-07-29T15:03:23.819Z,1.60
2022-07-29T15:08:30.910Z,1.30
2022-07-29T15:13:34.878Z,1.30
2022-07-29T15:18:39.316Z,1.40
2022-07-29T15:23:43.934Z,1.20
2022-07-29T15:28:47.199Z,1.38
2022-07-29T15:33:53.333Z,1.40
2022-07-29T15:39:02.417Z,1.42
2022-07-29T15:44:06.156Z,1.20
2022-07-29T15:49:09.579Z,1.27
2022-07-29T15:54:14.218Z,1.30
2022-07-29T15:59:22.071Z,1.00
2022-07-29T16:04:26.223Z,1.20
2022-07-29T16:09:30.959Z,1.60
2022-07-29T16:14:34.675Z,1.13
2022-07-29T16:19:37.963Z,1.20
2022-07-29T16:24:43.049Z,1.23
2022-07-29T16:29:48.041Z,1.60
2022-07-29T16:34:51.695Z,1.50
2022-07-29T16:39:56.346Z,1.50
2022-07-29T16:44:59.624Z,1.40
2022-07-29T16:50:03.264Z,1.50
2022-07-29T16:55:09.090Z,1.70
2022-07-29T17:00:14.081Z,1.48
2022-07-29T17:05:17.743Z,1.33
2022-07-29T17:10:23.301Z,1.42
2022-07-29T17:15:26.822Z,1.30
2022-07-29T17:20:30.177Z,2.40
2022-07-29T17:25:34.820Z,1.40
2022-07-29T17:30:38.114Z,1.50
2022-07-29T17:35:58.653Z,1.40
2022-07-29T17:41:03.256Z,1.30
2022-07-29T17:46:12.907Z,1.60
2022-07-29T17:51:16.586Z,1.60
2022-07-29T17:56:21.241Z,1.80
2022-07-29T18:01:24.551Z,1.90
2022-07-29T18:06:28.091Z,1.90
2022-07-29T18:11:32.712Z,2.05
2022-07-29T18:16:36.034Z,1.90
2022-07-29T18:21:51.431Z,1.90
2022-07-29T18:27:00.334Z,2.13
2022-07-29T18:32:03.979Z,1.90
2022-07-29T18:37:07.821Z,2.00
2022-07-29T18:42:12.504Z,2.00
2022-07-29T18:47:15.762Z,3.00
2022-07-29T18:52:19.288Z,2.33
2022-07-29T18:57:55.846Z,2.23
2022-07-29T19:02:47.736Z,2.70
2022-07-29T19:07:51.133Z,2.80
2022-07-29T19:12:56.892Z,2.90
2022-07-29T19:18:01.351Z,3.60
2022-07-29T19:23:04.940Z,3.30
2022-07-29T19:28:09.621Z,4.05
2022-07-29T19:33:14.757Z,3.00
2022-07-29T19:38:19.135Z,3.38
2022-07-29T19:43:51.111Z,3.37
2022-07-29T19:48:47.281Z,3.00
2022-07-29T19:53:51.005Z,3.03
2022-07-29T19:58:55.663Z,3.10
2022-07-29T20:03:58.951Z,3.10
2022-07-29T20:09:02.214Z,3.47
2022-07-29T20:14:06.852Z,3.08
2022-07-29T20:19:10.523Z,3.30
2022-07-29T20:24:13.867Z,3.63
2022-07-29T20:29:18.865Z,3.20
2022-07-29T20:34:22.182Z,3.10
2022-07-29T20:39:26.103Z,3.20
2022-07-29T20:44:30.804Z,3.10
2022-07-29T20:49:34.534Z,3.40
2022-07-29T20:54:37.916Z,3.10
2022-07-29T20:59:45.817Z,3.00
2022-07-29T21:04:49.331Z,2.70
2022-07-29T21:09:52.588Z,2.20
2022-07-29T21:14:57.890Z,2.40
2022-07-29T21:20:01.194Z,2.30
2022-07-29T21:25:05.062Z,2.37
2022-07-29T21:30:11.746Z,2.85
2022-07-29T21:35:23.393Z,2.70
2022-07-29T21:40:39.617Z,2.83
2022-07-29T21:45:47.678Z,3.20
2022-07-29T21:50:52.068Z,3.50
2022-07-29T21:55:55.641Z,3.97
2022-07-29T22:01:00.385Z,4.00
2022-07-29T22:06:03.809Z,3.95
2022-07-29T22:11:07.061Z,4.20
2022-07-29T22:16:15.054Z,4.30
2022-07-29T22:21:18.525Z,4.40
2022-07-29T22:26:21.774Z,4.60
2022-07-29T22:31:26.469Z,4.85
2022-07-29T22:36:29.782Z,5.07
2022-07-29T22:41:33.177Z,5.00
2022-07-29T22:46:38.162Z,5.10
2022-07-29T22:51:41.513Z,5.60
2022-07-29T22:56:44.815Z,5.60
2022-07-29T23:01:49.552Z,5.90
2022-07-29T23:06:52.866Z,5.72
2022-07-29T23:11:56.094Z,5.68
2022-07-29T23:17:00.920Z,5.38
2022-07-29T23:22:04.406Z,5.60
2022-07-29T23:27:07.699Z,5.80
2022-07-29T23:32:12.334Z,5.90
2022-07-29T23:37:15.581Z,5.80
2022-07-29T23:42:18.833Z,6.90
2022-07-29T23:47:23.476Z,7.40
2022-07-29T23:52:26.765Z,8.00
2022-07-29T23:57:29.995Z,8.10
